TimePDT,TemperatureF,Dew PointF,Humidity,Sea Level PressureIn,VisibilityMPH,Wind Direction,Wind SpeedMPH,Gust SpeedMPH,PrecipitationIn,Events,Conditions,WindDirDegrees,DateUTC
12:53 AM,53.1,39.0,59,30.18,10.0,NNW,8.1,-,N/A,,Clear,340,2013-05-31 07:53:00
1:53 AM,53.1,37.9,57,30.18,10.0,NW,9.2,-,N/A,,Clear,320,2013-05-31 08:53:00
2:53 AM,52.0,37.9,59,30.19,10.0,NNW,8.1,-,N/A,,Clear,330,2013-05-31 09:53:00
3:53 AM,44.1,37.9,79,30.22,10.0,Variable,5.8,-,N/A,,Clear,0,2013-05-31 10:53:00
4:53 AM,42.1,37.0,82,30.24,10.0,WSW,4.6,-,N/A,,Clear,240,2013-05-31 11:53:00
5:53 AM,41.0,36.0,82,30.25,10.0,West,6.9,-,N/A,,Clear,280,2013-05-31 12:53:00
6:53 AM,48.0,39.0,71,30.26,10.0,West,3.5,-,N/A,,Clear,270,2013-05-31 13:53:00
7:53 AM,54.0,39.9,59,30.27,10.0,Calm,Calm,-,N/A,,Clear,0,2013-05-31 14:53:00
8:53 AM,59.0,39.9,49,30.27,10.0,WNW,3.5,-,N/A,,Clear,290,2013-05-31 15:53:00
9:53 AM,62.1,39.0,43,30.27,10.0,Calm,Calm,-,N/A,,Partly Cloudy,0,2013-05-31 16:53:00
10:53 AM,63.0,37.9,40,30.27,10.0,Calm,Calm,-,N/A,,Scattered Clouds,0,2013-05-31 17:53:00
11:53 AM,66.0,37.0,34,30.27,10.0,Calm,Calm,-,N/A,,Clear,0,2013-05-31 18:53:00
12:53 PM,68.0,36.0,31,30.26,10.0,SE,5.8,-,N/A,,Clear,140,2013-05-31 19:53:00
1:53 PM,70.0,35.1,28,30.24,10.0,Calm,Calm,-,N/A,,Clear,0,2013-05-31 20:53:00
2:53 PM,71.1,35.1,27,30.22,10.0,East,4.6,-,N/A,,Clear,100,2013-05-31 21:53:00
3:53 PM,73.0,37.0,27,30.22,10.0,North,5.8,-,N/A,,Scattered Clouds,10,2013-05-31 22:53:00
4:53 PM,73.0,37.0,27,30.21,10.0,Variable,3.5,-,N/A,,Partly Cloudy,0,2013-05-31 23:53:00
5:53 PM,73.0,37.0,27,30.21,10.0,East,3.5,-,N/A,,Partly Cloudy,100,2013-06-01 00:53:00
6:53 PM,72.0,37.9,29,30.20,10.0,Calm,Calm,-,N/A,,Partly Cloudy,0,2013-06-01 01:53:00
7:53 PM,71.1,39.9,32,30.19,10.0,South,3.5,-,N/A,,Scattered Clouds,180,2013-06-01 02:53:00
8:53 PM,64.0,46.0,52,30.19,10.0,SW,3.5,-,N/A,,Partly Cloudy,230,2013-06-01 03:53:00
9:53 PM,59.0,46.0,62,30.20,10.0,West,6.9,-,N/A,,Clear,270,2013-06-01 04:53:00
10:53 PM,57.0,44.1,62,30.20,10.0,West,4.6,-,N/A,,Clear,280,2013-06-01 05:53:00
11:53 PM,54.0,44.1,69,30.20,10.0,West,4.6,-,N/A,,Clear,260,2013-06-01 06:53:00